AFR66PY LFPG-LPFR
Flight info
| Callsign | AFR66PY |
|---|---|
| Flight time | 2h 25m |
| Altitude | 35000 |
| Route | LGL UT176 TERPO UN872 ERIGA UZ218 FUJTI/N0450F370 DCT BAKUP DCT BATAX DCT ELVAR DCT ERTIS Y105 GENRO |
| Aircraft | A320/M-SDE2E3FGIJ1RWY/HB1 |
Departure
| Time | 2026-05-04 13:48 |
|---|---|
| Airport | Charles de Gaulle International Airport (LFPG) |
Arrival
| Time | 2026-05-04 16:13 |
|---|---|
| Airport | Faro - Gago Coutinho International Airport (LPFR) |
| Time | Latitude | Longitude | Altitude | Speed | Heading |
|---|---|---|---|---|---|
| 2026-05-04 13:01 | 49.00290 | 2.58404 | 355 ft | 0 kts | 85° |
| 2026-05-04 13:38 | 49.00289 | 2.58389 | 363 ft | 3 kts | 86° |
| 2026-05-04 13:39 | 49.00288 | 2.58358 | 357 ft | 3 kts | 94° |
| 2026-05-04 13:39 | 49.00291 | 2.58328 | 364 ft | 3 kts | 108° |
| 2026-05-04 13:39 | 49.00299 | 2.58302 | 361 ft | 3 kts | 138° |
| 2026-05-04 13:39 | 49.00311 | 2.58291 | 359 ft | 0 kts | 175° |
| 2026-05-04 13:42 | 49.00309 | 2.58291 | 360 ft | 2 kts | 175° |
| 2026-05-04 13:43 | 49.00275 | 2.58296 | 363 ft | 8 kts | 175° |
| 2026-05-04 13:43 | 49.00198 | 2.58305 | 354 ft | 13 kts | 175° |
| 2026-05-04 13:43 | 49.00116 | 2.58314 | 361 ft | 11 kts | 175° |
| 2026-05-04 13:43 | 49.00044 | 2.58320 | 354 ft | 9 kts | 185° |
| 2026-05-04 13:44 | 48.99975 | 2.58291 | 354 ft | 12 kts | 191° |
| 2026-05-04 13:44 | 48.99916 | 2.58195 | 363 ft | 16 kts | 262° |
| 2026-05-04 13:44 | 48.99905 | 2.58005 | 354 ft | 20 kts | 265° |
| 2026-05-04 13:44 | 48.99892 | 2.57767 | 354 ft | 25 kts | 265° |
| 2026-05-04 13:45 | 48.99877 | 2.57496 | 358 ft | 26 kts | 265° |
| 2026-05-04 13:45 | 48.99863 | 2.57213 | 354 ft | 27 kts | 265° |
| 2026-05-04 13:45 | 48.99848 | 2.56919 | 360 ft | 28 kts | 265° |
| 2026-05-04 13:45 | 48.99830 | 2.56614 | 354 ft | 29 kts | 265° |
| 2026-05-04 13:46 | 48.99821 | 2.56407 | 354 ft | 16 kts | 266° |
| 2026-05-04 13:46 | 48.99811 | 2.56246 | 356 ft | 15 kts | 264° |
| 2026-05-04 13:46 | 48.99802 | 2.56103 | 359 ft | 13 kts | 265° |
| 2026-05-04 13:46 | 48.99752 | 2.56029 | 359 ft | 10 kts | 181° |
| 2026-05-04 13:47 | 48.99679 | 2.56037 | 359 ft | 12 kts | 174° |
| 2026-05-04 13:47 | 48.99614 | 2.56057 | 361 ft | 5 kts | 126° |
| 2026-05-04 13:47 | 48.99615 | 2.56108 | 355 ft | 9 kts | 85° |
| 2026-05-04 13:47 | 48.99636 | 2.56505 | 358 ft | 73 kts | 85° |
| 2026-05-04 13:48 | 48.99694 | 2.57601 | 352 ft | 131 kts | 85° |
| 2026-05-04 13:48 | 48.99780 | 2.59208 | 453 ft | 165 kts | 84° |
| 2026-05-04 13:48 | 48.99867 | 2.60917 | 1165 ft | 160 kts | 85° |
| 2026-05-04 13:48 | 48.99970 | 2.62608 | 1854 ft | 160 kts | 85° |
| 2026-05-04 13:49 | 49.00073 | 2.64303 | 2499 ft | 161 kts | 84° |
| 2026-05-04 13:49 | 49.00174 | 2.65994 | 3130 ft | 161 kts | 85° |
| 2026-05-04 13:49 | 49.00257 | 2.67703 | 3649 ft | 166 kts | 86° |
| 2026-05-04 13:49 | 49.00344 | 2.69579 | 3917 ft | 188 kts | 85° |
| 2026-05-04 13:50 | 49.00448 | 2.71677 | 4186 ft | 210 kts | 85° |
| 2026-05-04 13:50 | 49.00564 | 2.74026 | 4459 ft | 235 kts | 85° |
| 2026-05-04 13:50 | 49.00695 | 2.76634 | 4861 ft | 259 kts | 86° |
| 2026-05-04 13:50 | 49.00596 | 2.79424 | 5540 ft | 269 kts | 99° |
| 2026-05-04 13:51 | 49.00295 | 2.82257 | 6410 ft | 273 kts | 100° |
| 2026-05-04 13:51 | 48.99989 | 2.85127 | 7238 ft | 276 kts | 100° |
| 2026-05-04 13:51 | 48.99678 | 2.88028 | 8071 ft | 280 kts | 100° |
| 2026-05-04 13:51 | 48.99363 | 2.90968 | 8903 ft | 283 kts | 99° |
| 2026-05-04 13:52 | 48.98664 | 2.96958 | 10357 ft | 297 kts | 108° |
| 2026-05-04 13:52 | 48.97560 | 2.99697 | 10585 ft | 317 kts | 137° |
| 2026-05-04 13:52 | 48.95630 | 3.01402 | 11034 ft | 329 kts | 164° |
| 2026-05-04 13:53 | 48.93374 | 3.01623 | 11674 ft | 335 kts | 190° |
| 2026-05-04 13:53 | 48.91237 | 3.00221 | 12342 ft | 341 kts | 217° |
| 2026-05-04 13:53 | 48.89738 | 2.97424 | 13024 ft | 347 kts | 245° |
| 2026-05-04 13:54 | 48.88326 | 2.90317 | 14339 ft | 356 kts | 256° |
| 2026-05-04 13:54 | 48.87791 | 2.86634 | 14977 ft | 358 kts | 257° |
| 2026-05-04 13:54 | 48.86720 | 2.79186 | 16336 ft | 363 kts | 256° |
| 2026-05-04 13:55 | 48.86140 | 2.75436 | 16983 ft | 366 kts | 255° |
| 2026-05-04 13:55 | 48.84898 | 2.67886 | 18223 ft | 371 kts | 255° |
| 2026-05-04 13:55 | 48.84253 | 2.64079 | 18775 ft | 374 kts | 254° |
| 2026-05-04 13:56 | 48.83603 | 2.60249 | 19324 ft | 376 kts | 254° |
| 2026-05-04 13:56 | 48.82950 | 2.56395 | 19865 ft | 378 kts | 254° |
| 2026-05-04 13:56 | 48.81645 | 2.48631 | 20954 ft | 382 kts | 254° |
| 2026-05-04 13:57 | 48.80987 | 2.44722 | 21499 ft | 383 kts | 253° |
| 2026-05-04 13:57 | 48.80357 | 2.40783 | 22017 ft | 386 kts | 258° |
| 2026-05-04 13:58 | 48.80127 | 2.28424 | 23525 ft | 395 kts | 268° |
| 2026-05-04 13:58 | 48.80144 | 2.20058 | 24339 ft | 399 kts | 267° |
| 2026-05-04 13:58 | 48.80144 | 2.15842 | 24743 ft | 402 kts | 267° |
| 2026-05-04 13:59 | 48.80141 | 2.11584 | 25127 ft | 405 kts | 267° |
| 2026-05-04 13:59 | 48.80138 | 2.07295 | 25504 ft | 407 kts | 267° |
| 2026-05-04 13:59 | 48.80133 | 1.98664 | 26248 ft | 412 kts | 266° |
| 2026-05-04 14:00 | 48.80128 | 1.94309 | 26613 ft | 414 kts | 266° |
| 2026-05-04 14:00 | 48.80110 | 1.85544 | 27333 ft | 418 kts | 266° |
| 2026-05-04 14:00 | 48.80100 | 1.81130 | 27688 ft | 420 kts | 266° |
| 2026-05-04 14:01 | 48.80090 | 1.76694 | 28036 ft | 422 kts | 266° |
| 2026-05-04 14:01 | 48.80077 | 1.72231 | 28422 ft | 424 kts | 266° |
| 2026-05-04 14:01 | 48.80044 | 1.63257 | 29153 ft | 427 kts | 266° |
| 2026-05-04 14:02 | 48.80025 | 1.58806 | 29492 ft | 429 kts | 266° |
| 2026-05-04 14:02 | 48.80005 | 1.54276 | 29821 ft | 431 kts | 266° |
| 2026-05-04 14:02 | 48.79983 | 1.49720 | 30121 ft | 432 kts | 266° |
| 2026-05-04 14:02 | 48.79960 | 1.45152 | 30376 ft | 434 kts | 266° |
| 2026-05-04 14:03 | 48.79934 | 1.40568 | 30623 ft | 436 kts | 266° |
| 2026-05-04 14:03 | 48.79904 | 1.35953 | 30870 ft | 438 kts | 266° |
| 2026-05-04 14:03 | 48.79870 | 1.31327 | 31112 ft | 440 kts | 265° |
| 2026-05-04 14:03 | 48.79834 | 1.26682 | 31413 ft | 441 kts | 266° |
| 2026-05-04 14:04 | 48.79761 | 1.17390 | 32092 ft | 440 kts | 265° |
| 2026-05-04 14:04 | 48.79723 | 1.12759 | 32427 ft | 439 kts | 265° |
| 2026-05-04 14:04 | 48.79683 | 1.08134 | 32767 ft | 439 kts | 265° |
| 2026-05-04 14:05 | 48.79599 | 0.98892 | 33434 ft | 437 kts | 265° |
| 2026-05-04 14:05 | 48.79555 | 0.94281 | 33776 ft | 437 kts | 265° |
| 2026-05-04 14:05 | 48.79508 | 0.89683 | 34089 ft | 436 kts | 265° |
| 2026-05-04 14:06 | 48.79458 | 0.85088 | 34376 ft | 436 kts | 265° |
| 2026-05-04 14:06 | 48.79408 | 0.80560 | 34638 ft | 435 kts | 265° |
| 2026-05-04 14:06 | 48.79355 | 0.75966 | 34944 ft | 435 kts | 265° |
| 2026-05-04 14:06 | 48.79297 | 0.71383 | 35196 ft | 435 kts | 265° |
| 2026-05-04 14:07 | 48.79236 | 0.66803 | 35438 ft | 435 kts | 265° |
| 2026-05-04 14:07 | 48.79175 | 0.62217 | 35698 ft | 434 kts | 264° |
| 2026-05-04 14:07 | 48.78847 | 0.57698 | 35917 ft | 430 kts | 255° |
| 2026-05-04 14:07 | 48.78016 | 0.53382 | 36161 ft | 425 kts | 245° |
| 2026-05-04 14:08 | 48.76721 | 0.49389 | 36413 ft | 421 kts | 236° |
| 2026-05-04 14:08 | 48.75014 | 0.45815 | 36670 ft | 417 kts | 227° |
| 2026-05-04 14:08 | 48.73131 | 0.42483 | 36912 ft | 417 kts | 228° |
| 2026-05-04 14:09 | 48.67452 | 0.32394 | 36971 ft | 421 kts | 228° |
| 2026-05-04 14:10 | 48.61749 | 0.22285 | 36972 ft | 421 kts | 228° |
| 2026-05-04 14:10 | 48.57936 | 0.15573 | 36972 ft | 421 kts | 227° |
| 2026-05-04 14:11 | 48.54163 | 0.08887 | 36968 ft | 421 kts | 228° |
| 2026-05-04 14:11 | 48.48485 | -0.01234 | 36992 ft | 422 kts | 228° |
| 2026-05-04 14:12 | 48.44675 | -0.07969 | 36971 ft | 423 kts | 228° |
| 2026-05-04 14:13 | 48.38939 | -0.18075 | 36965 ft | 423 kts | 228° |
| 2026-05-04 14:13 | 48.35110 | -0.24798 | 36970 ft | 423 kts | 228° |
| 2026-05-04 14:14 | 48.31887 | -0.30411 | 36963 ft | 423 kts | 227° |
| 2026-05-04 14:14 | 48.26108 | -0.40343 | 36961 ft | 423 kts | 227° |
| 2026-05-04 14:15 | 48.18372 | -0.53615 | 36977 ft | 422 kts | 227° |
| 2026-05-04 14:16 | 48.12583 | -0.63519 | 36986 ft | 421 kts | 227° |
| 2026-05-04 14:17 | 48.06784 | -0.73378 | 36987 ft | 420 kts | 227° |
| 2026-05-04 14:18 | 48.00985 | -0.83204 | 36981 ft | 420 kts | 227° |
| 2026-05-04 14:19 | 47.93238 | -0.96296 | 36971 ft | 421 kts | 226° |
| 2026-05-04 14:19 | 47.89351 | -1.02824 | 36970 ft | 421 kts | 226° |
| 2026-05-04 14:20 | 47.85464 | -1.09332 | 36965 ft | 420 kts | 226° |
| 2026-05-04 14:20 | 47.81581 | -1.15847 | 36965 ft | 421 kts | 226° |
| 2026-05-04 14:21 | 47.75776 | -1.25553 | 36956 ft | 420 kts | 226° |
| 2026-05-04 14:21 | 47.71876 | -1.32036 | 36953 ft | 421 kts | 226° |
| 2026-05-04 14:22 | 47.67961 | -1.38526 | 36951 ft | 422 kts | 226° |
| 2026-05-04 14:22 | 47.64043 | -1.45020 | 36948 ft | 423 kts | 226° |
| 2026-05-04 14:23 | 47.58149 | -1.54756 | 36953 ft | 423 kts | 226° |
| 2026-05-04 14:24 | 47.54216 | -1.61240 | 36952 ft | 423 kts | 226° |
| 2026-05-04 14:24 | 47.50276 | -1.67713 | 36975 ft | 423 kts | 226° |
| 2026-05-04 14:25 | 47.46329 | -1.74188 | 36963 ft | 424 kts | 226° |
| 2026-05-04 14:25 | 47.40397 | -1.83902 | 36964 ft | 425 kts | 226° |
| 2026-05-04 14:26 | 47.36424 | -1.90374 | 36973 ft | 425 kts | 225° |
| 2026-05-04 14:26 | 47.31799 | -1.95669 | 36978 ft | 421 kts | 210° |
| 2026-05-04 14:27 | 47.26785 | -2.00143 | 36976 ft | 421 kts | 210° |
| 2026-05-04 14:27 | 47.21772 | -2.04626 | 36981 ft | 422 kts | 210° |
| 2026-05-04 14:28 | 47.16756 | -2.09105 | 36996 ft | 422 kts | 210° |
| 2026-05-04 14:28 | 47.11728 | -2.13566 | 36987 ft | 422 kts | 210° |
| 2026-05-04 14:29 | 47.01674 | -2.22483 | 36978 ft | 422 kts | 210° |
| 2026-05-04 14:30 | 46.96648 | -2.26934 | 36977 ft | 422 kts | 210° |
| 2026-05-04 14:31 | 46.89097 | -2.33583 | 36975 ft | 422 kts | 210° |
| 2026-05-04 14:32 | 46.79025 | -2.42413 | 36976 ft | 422 kts | 210° |
| 2026-05-04 14:32 | 46.73986 | -2.46834 | 36981 ft | 423 kts | 210° |
| 2026-05-04 14:33 | 46.68935 | -2.51258 | 36967 ft | 424 kts | 210° |
| 2026-05-04 14:33 | 46.63872 | -2.55678 | 36963 ft | 425 kts | 210° |
| 2026-05-04 14:34 | 46.58838 | -2.60055 | 36960 ft | 425 kts | 210° |
| 2026-05-04 14:34 | 46.53758 | -2.64464 | 36960 ft | 425 kts | 210° |
| 2026-05-04 14:35 | 46.48682 | -2.68860 | 36962 ft | 425 kts | 210° |
| 2026-05-04 14:35 | 46.43600 | -2.73259 | 36975 ft | 425 kts | 210° |
| 2026-05-04 14:36 | 46.38513 | -2.77649 | 36976 ft | 425 kts | 210° |
| 2026-05-04 14:36 | 46.33424 | -2.82025 | 36980 ft | 426 kts | 210° |
| 2026-05-04 14:37 | 46.28327 | -2.86401 | 36973 ft | 426 kts | 210° |
| 2026-05-04 14:37 | 46.23234 | -2.90784 | 36974 ft | 426 kts | 211° |
| 2026-05-04 14:38 | 46.18158 | -2.95218 | 36967 ft | 426 kts | 211° |
| 2026-05-04 14:38 | 46.13083 | -2.99651 | 36971 ft | 426 kts | 211° |
| 2026-05-04 14:39 | 46.08008 | -3.04058 | 36989 ft | 425 kts | 211° |
| 2026-05-04 14:39 | 46.02939 | -3.08445 | 36992 ft | 425 kts | 211° |
| 2026-05-04 14:40 | 45.95381 | -3.14960 | 36989 ft | 424 kts | 211° |
| 2026-05-04 14:40 | 45.90324 | -3.19323 | 36982 ft | 424 kts | 211° |
| 2026-05-04 14:41 | 45.85264 | -3.23674 | 36979 ft | 424 kts | 210° |
| 2026-05-04 14:42 | 45.75118 | -3.32359 | 36977 ft | 425 kts | 210° |
| 2026-05-04 14:42 | 45.70041 | -3.36696 | 36969 ft | 425 kts | 211° |
| 2026-05-04 14:43 | 45.64957 | -3.41020 | 36978 ft | 425 kts | 210° |
| 2026-05-04 14:43 | 45.59871 | -3.45331 | 36984 ft | 425 kts | 210° |
| 2026-05-04 14:44 | 45.54778 | -3.49642 | 36978 ft | 426 kts | 210° |
| 2026-05-04 14:44 | 45.49684 | -3.53954 | 36992 ft | 426 kts | 211° |
| 2026-05-04 14:45 | 45.44586 | -3.58269 | 36986 ft | 426 kts | 211° |
| 2026-05-04 14:45 | 45.39482 | -3.62575 | 36985 ft | 427 kts | 211° |
| 2026-05-04 14:46 | 45.34373 | -3.66875 | 36990 ft | 427 kts | 211° |
| 2026-05-04 14:46 | 45.29263 | -3.71158 | 36985 ft | 427 kts | 211° |
| 2026-05-04 14:47 | 45.24151 | -3.75436 | 36993 ft | 426 kts | 211° |
| 2026-05-04 14:47 | 45.19038 | -3.79704 | 37009 ft | 426 kts | 211° |
| 2026-05-04 14:48 | 45.13925 | -3.83965 | 36998 ft | 426 kts | 211° |
| 2026-05-04 14:48 | 45.08816 | -3.88212 | 37003 ft | 426 kts | 211° |
| 2026-05-04 14:49 | 45.03704 | -3.92460 | 37002 ft | 426 kts | 211° |
| 2026-05-04 14:49 | 44.98589 | -3.96705 | 37005 ft | 426 kts | 211° |
| 2026-05-04 14:50 | 44.93473 | -4.00938 | 36993 ft | 426 kts | 211° |
| 2026-05-04 14:50 | 44.88354 | -4.05149 | 37000 ft | 426 kts | 211° |
| 2026-05-04 14:51 | 44.83238 | -4.09358 | 37003 ft | 425 kts | 211° |
| 2026-05-04 14:51 | 44.78126 | -4.13562 | 37010 ft | 425 kts | 211° |
| 2026-05-04 14:52 | 44.73050 | -4.17737 | 37006 ft | 425 kts | 211° |
| 2026-05-04 14:52 | 44.67940 | -4.21916 | 37010 ft | 425 kts | 211° |
| 2026-05-04 14:53 | 44.62822 | -4.26086 | 37005 ft | 425 kts | 211° |
| 2026-05-04 14:53 | 44.57708 | -4.30257 | 36999 ft | 425 kts | 211° |
| 2026-05-04 14:54 | 44.52589 | -4.34423 | 36988 ft | 425 kts | 211° |
| 2026-05-04 14:54 | 44.47471 | -4.38572 | 37009 ft | 425 kts | 211° |
| 2026-05-04 14:55 | 44.42349 | -4.42709 | 37011 ft | 425 kts | 211° |
| 2026-05-04 14:55 | 44.37256 | -4.46896 | 37009 ft | 424 kts | 212° |
| 2026-05-04 14:56 | 44.32221 | -4.51211 | 37006 ft | 424 kts | 212° |
| 2026-05-04 14:56 | 44.27187 | -4.55522 | 37010 ft | 424 kts | 212° |
| 2026-05-04 14:57 | 44.22146 | -4.59792 | 37016 ft | 424 kts | 212° |
| 2026-05-04 14:57 | 44.17093 | -4.64035 | 37014 ft | 424 kts | 212° |
| 2026-05-04 14:58 | 44.12035 | -4.68270 | 37006 ft | 424 kts | 212° |
| 2026-05-04 14:58 | 44.07836 | -4.71787 | 37007 ft | 424 kts | 212° |
| 2026-05-04 14:59 | 44.01965 | -4.76707 | 37012 ft | 424 kts | 212° |
| 2026-05-04 15:00 | 43.94382 | -4.83046 | 37017 ft | 424 kts | 212° |
| 2026-05-04 15:00 | 43.89326 | -4.87261 | 37015 ft | 424 kts | 212° |
| 2026-05-04 15:01 | 43.81745 | -4.93553 | 37021 ft | 423 kts | 212° |
| 2026-05-04 15:01 | 43.76689 | -4.97742 | 37027 ft | 424 kts | 212° |
| 2026-05-04 15:02 | 43.72482 | -5.01222 | 37019 ft | 424 kts | 212° |
| 2026-05-04 15:02 | 43.67419 | -5.05400 | 37014 ft | 424 kts | 212° |
| 2026-05-04 15:03 | 43.62350 | -5.09572 | 37025 ft | 424 kts | 212° |
| 2026-05-04 15:03 | 43.57282 | -5.13740 | 37026 ft | 424 kts | 212° |
| 2026-05-04 15:04 | 43.52214 | -5.17901 | 37030 ft | 424 kts | 212° |
| 2026-05-04 15:04 | 43.47151 | -5.22052 | 37024 ft | 423 kts | 212° |
| 2026-05-04 15:05 | 43.42090 | -5.26192 | 37026 ft | 423 kts | 212° |
| 2026-05-04 15:05 | 43.37027 | -5.30318 | 37022 ft | 423 kts | 212° |
| 2026-05-04 15:06 | 43.31960 | -5.34435 | 37031 ft | 423 kts | 212° |
| 2026-05-04 15:07 | 43.24388 | -5.40583 | 37002 ft | 423 kts | 213° |
| 2026-05-04 15:07 | 43.19315 | -5.44701 | 37001 ft | 424 kts | 213° |
| 2026-05-04 15:08 | 43.14241 | -5.48809 | 37009 ft | 424 kts | 213° |
| 2026-05-04 15:08 | 43.09162 | -5.52906 | 36995 ft | 424 kts | 213° |
| 2026-05-04 15:09 | 43.04080 | -5.57001 | 36987 ft | 423 kts | 213° |
| 2026-05-04 15:09 | 42.99006 | -5.61077 | 37001 ft | 423 kts | 213° |
| 2026-05-04 15:10 | 42.91396 | -5.67188 | 36988 ft | 423 kts | 213° |
| 2026-05-04 15:11 | 42.83780 | -5.73274 | 36967 ft | 423 kts | 213° |
| 2026-05-04 15:11 | 42.78707 | -5.77320 | 36971 ft | 423 kts | 213° |
| 2026-05-04 15:12 | 42.73630 | -5.81369 | 36971 ft | 423 kts | 213° |
| 2026-05-04 15:12 | 42.68549 | -5.85405 | 36972 ft | 423 kts | 213° |
| 2026-05-04 15:13 | 42.63462 | -5.89445 | 36977 ft | 423 kts | 213° |
| 2026-05-04 15:13 | 42.58408 | -5.93448 | 36971 ft | 423 kts | 213° |
| 2026-05-04 15:14 | 42.53317 | -5.97461 | 36967 ft | 423 kts | 213° |
| 2026-05-04 15:14 | 42.48228 | -6.01468 | 36963 ft | 423 kts | 213° |
| 2026-05-04 15:15 | 42.43139 | -6.05478 | 36943 ft | 423 kts | 213° |
| 2026-05-04 15:15 | 42.38055 | -6.09479 | 36958 ft | 423 kts | 213° |
| 2026-05-04 15:16 | 42.30424 | -6.15462 | 36952 ft | 423 kts | 213° |
| 2026-05-04 15:17 | 42.22785 | -6.21423 | 36924 ft | 423 kts | 214° |
| 2026-05-04 15:17 | 42.15154 | -6.27372 | 36944 ft | 422 kts | 214° |
| 2026-05-04 15:18 | 42.10078 | -6.31326 | 36943 ft | 421 kts | 214° |
| 2026-05-04 15:19 | 42.02492 | -6.37209 | 36947 ft | 421 kts | 213° |
| 2026-05-04 15:19 | 41.94876 | -6.43096 | 36948 ft | 421 kts | 214° |
| 2026-05-04 15:20 | 41.89805 | -6.47016 | 36952 ft | 421 kts | 214° |
| 2026-05-04 15:20 | 41.84732 | -6.50934 | 36953 ft | 420 kts | 214° |
| 2026-05-04 15:21 | 41.79657 | -6.54828 | 36935 ft | 420 kts | 214° |
| 2026-05-04 15:22 | 41.72049 | -6.60644 | 36968 ft | 420 kts | 212° |
| 2026-05-04 15:22 | 41.63511 | -6.63846 | 36972 ft | 430 kts | 196° |
| 2026-05-04 15:23 | 41.57634 | -6.65315 | 36947 ft | 430 kts | 196° |
| 2026-05-04 15:23 | 41.51756 | -6.66785 | 36959 ft | 429 kts | 196° |
| 2026-05-04 15:24 | 41.40081 | -6.70021 | 36985 ft | 428 kts | 198° |
| 2026-05-04 15:25 | 41.34311 | -6.71753 | 36962 ft | 427 kts | 198° |
| 2026-05-04 15:26 | 41.25595 | -6.74277 | 36992 ft | 427 kts | 198° |
| 2026-05-04 15:26 | 41.16883 | -6.76770 | 36986 ft | 427 kts | 198° |
| 2026-05-04 15:27 | 41.08178 | -6.79275 | 36988 ft | 427 kts | 198° |
| 2026-05-04 15:28 | 40.99478 | -6.81773 | 36988 ft | 426 kts | 198° |
| 2026-05-04 15:29 | 40.90784 | -6.84265 | 36961 ft | 426 kts | 198° |
| 2026-05-04 15:30 | 40.70501 | -6.90031 | 36979 ft | 426 kts | 198° |
| 2026-05-04 15:31 | 40.61807 | -6.92498 | 36974 ft | 426 kts | 198° |
| 2026-05-04 15:32 | 40.47345 | -6.96576 | 36991 ft | 426 kts | 198° |
| 2026-05-04 15:34 | 40.32842 | -7.00660 | 36994 ft | 426 kts | 198° |
| 2026-05-04 15:34 | 40.24144 | -7.03097 | 36964 ft | 426 kts | 198° |
| 2026-05-04 15:35 | 40.15451 | -7.05521 | 36976 ft | 426 kts | 198° |
| 2026-05-04 15:36 | 40.06759 | -7.07935 | 36981 ft | 426 kts | 198° |
| 2026-05-04 15:36 | 40.00967 | -7.09551 | 36961 ft | 425 kts | 199° |
| 2026-05-04 15:37 | 39.95178 | -7.11153 | 36969 ft | 425 kts | 199° |
| 2026-05-04 15:37 | 39.89392 | -7.12757 | 36976 ft | 425 kts | 199° |
| 2026-05-04 15:38 | 39.83602 | -7.14355 | 36980 ft | 425 kts | 199° |
| 2026-05-04 15:38 | 39.77816 | -7.15956 | 36964 ft | 425 kts | 199° |
| 2026-05-04 15:39 | 39.72030 | -7.17549 | 36977 ft | 425 kts | 199° |
| 2026-05-04 15:40 | 39.63401 | -7.19932 | 36988 ft | 424 kts | 199° |
| 2026-05-04 15:40 | 39.57621 | -7.21519 | 36970 ft | 424 kts | 199° |
| 2026-05-04 15:41 | 39.51846 | -7.23098 | 36974 ft | 424 kts | 199° |
| 2026-05-04 15:41 | 39.46067 | -7.24679 | 36981 ft | 424 kts | 199° |
| 2026-05-04 15:42 | 39.40292 | -7.26262 | 36989 ft | 424 kts | 199° |
| 2026-05-04 15:42 | 39.34518 | -7.27839 | 36964 ft | 424 kts | 199° |
| 2026-05-04 15:43 | 39.28744 | -7.29401 | 36976 ft | 424 kts | 199° |
| 2026-05-04 15:43 | 39.22972 | -7.30961 | 36995 ft | 424 kts | 199° |
| 2026-05-04 15:44 | 39.17204 | -7.32529 | 37000 ft | 423 kts | 199° |
| 2026-05-04 15:44 | 39.11441 | -7.34097 | 36978 ft | 423 kts | 199° |
| 2026-05-04 15:45 | 39.05678 | -7.35651 | 37002 ft | 423 kts | 199° |
| 2026-05-04 15:45 | 38.99924 | -7.37202 | 37008 ft | 422 kts | 199° |
| 2026-05-04 15:46 | 38.94212 | -7.38745 | 37010 ft | 422 kts | 199° |
| 2026-05-04 15:46 | 38.88461 | -7.40288 | 36967 ft | 422 kts | 199° |
| 2026-05-04 15:46 | 38.85584 | -7.41062 | 36766 ft | 422 kts | 199° |
| 2026-05-04 15:47 | 38.82709 | -7.41836 | 36502 ft | 422 kts | 199° |
| 2026-05-04 15:47 | 38.79839 | -7.42607 | 36244 ft | 422 kts | 199° |
| 2026-05-04 15:47 | 38.76958 | -7.43378 | 36013 ft | 423 kts | 199° |
| 2026-05-04 15:47 | 38.74094 | -7.44140 | 35605 ft | 419 kts | 199° |
| 2026-05-04 15:48 | 38.71244 | -7.44897 | 35093 ft | 416 kts | 199° |
| 2026-05-04 15:48 | 38.68422 | -7.45647 | 34581 ft | 414 kts | 199° |
| 2026-05-04 15:48 | 38.62815 | -7.47144 | 33504 ft | 409 kts | 200° |
| 2026-05-04 15:49 | 38.60046 | -7.47884 | 33010 ft | 404 kts | 199° |
| 2026-05-04 15:49 | 38.57305 | -7.48616 | 32507 ft | 401 kts | 200° |
| 2026-05-04 15:49 | 38.54587 | -7.49339 | 32009 ft | 398 kts | 199° |
| 2026-05-04 15:49 | 38.51887 | -7.50057 | 31516 ft | 395 kts | 200° |
| 2026-05-04 15:50 | 38.49207 | -7.50770 | 31043 ft | 392 kts | 199° |
| 2026-05-04 15:50 | 38.46549 | -7.51475 | 30566 ft | 389 kts | 199° |
| 2026-05-04 15:50 | 38.43913 | -7.52178 | 30094 ft | 386 kts | 200° |
| 2026-05-04 15:50 | 38.41296 | -7.52878 | 29564 ft | 382 kts | 199° |
| 2026-05-04 15:51 | 38.38701 | -7.53522 | 28985 ft | 383 kts | 194° |
| 2026-05-04 15:51 | 38.36013 | -7.53735 | 28388 ft | 386 kts | 190° |
| 2026-05-04 15:51 | 38.33346 | -7.53885 | 27959 ft | 381 kts | 190° |
| 2026-05-04 15:51 | 38.30707 | -7.54027 | 27527 ft | 377 kts | 190° |
| 2026-05-04 15:52 | 38.28137 | -7.54163 | 27107 ft | 373 kts | 190° |
| 2026-05-04 15:52 | 38.25561 | -7.54303 | 26688 ft | 369 kts | 190° |
| 2026-05-04 15:52 | 38.23013 | -7.54448 | 26275 ft | 365 kts | 190° |
| 2026-05-04 15:52 | 38.20488 | -7.54596 | 25862 ft | 362 kts | 190° |
| 2026-05-04 15:53 | 38.17980 | -7.54745 | 25422 ft | 359 kts | 190° |
| 2026-05-04 15:53 | 38.15491 | -7.54894 | 25000 ft | 357 kts | 190° |
| 2026-05-04 15:53 | 38.13015 | -7.55042 | 24565 ft | 355 kts | 190° |
| 2026-05-04 15:53 | 38.10554 | -7.55185 | 24112 ft | 354 kts | 190° |
| 2026-05-04 15:54 | 38.08096 | -7.55325 | 23671 ft | 353 kts | 190° |
| 2026-05-04 15:54 | 38.05646 | -7.55475 | 23154 ft | 352 kts | 190° |
| 2026-05-04 15:54 | 38.03211 | -7.55631 | 22697 ft | 349 kts | 190° |
| 2026-05-04 15:54 | 38.00793 | -7.55789 | 22246 ft | 347 kts | 190° |
| 2026-05-04 15:55 | 37.98388 | -7.55947 | 21799 ft | 345 kts | 190° |
| 2026-05-04 15:55 | 37.95998 | -7.56104 | 21348 ft | 343 kts | 190° |
| 2026-05-04 15:55 | 37.93623 | -7.56261 | 20899 ft | 341 kts | 189° |
| 2026-05-04 15:55 | 37.92056 | -7.56362 | 20622 ft | 340 kts | 189° |
| 2026-05-04 15:56 | 37.89701 | -7.56511 | 20193 ft | 338 kts | 189° |
| 2026-05-04 15:56 | 37.87355 | -7.56660 | 19762 ft | 337 kts | 189° |
| 2026-05-04 15:56 | 37.85013 | -7.56811 | 19337 ft | 337 kts | 189° |
| 2026-05-04 15:56 | 37.82673 | -7.56959 | 18919 ft | 336 kts | 189° |
| 2026-05-04 15:57 | 37.80336 | -7.57107 | 18490 ft | 336 kts | 189° |
| 2026-05-04 15:57 | 37.78004 | -7.57256 | 18036 ft | 336 kts | 189° |
| 2026-05-04 15:57 | 37.75673 | -7.57406 | 17609 ft | 334 kts | 189° |
| 2026-05-04 15:57 | 37.73359 | -7.57555 | 17204 ft | 332 kts | 189° |
| 2026-05-04 15:58 | 37.71056 | -7.57707 | 16767 ft | 331 kts | 188° |
| 2026-05-04 15:58 | 37.68762 | -7.57856 | 16381 ft | 329 kts | 188° |
| 2026-05-04 15:58 | 37.66477 | -7.58000 | 15983 ft | 328 kts | 188° |
| 2026-05-04 15:58 | 37.64201 | -7.58145 | 15588 ft | 327 kts | 188° |
| 2026-05-04 15:59 | 37.61926 | -7.58290 | 15189 ft | 327 kts | 188° |
| 2026-05-04 15:59 | 37.59657 | -7.58432 | 14792 ft | 327 kts | 188° |
| 2026-05-04 15:59 | 37.57386 | -7.58576 | 14393 ft | 326 kts | 187° |
| 2026-05-04 15:59 | 37.55124 | -7.58718 | 13998 ft | 325 kts | 188° |
| 2026-05-04 16:00 | 37.52862 | -7.58859 | 13567 ft | 325 kts | 187° |
| 2026-05-04 16:00 | 37.50608 | -7.58999 | 13159 ft | 324 kts | 187° |
| 2026-05-04 16:00 | 37.48365 | -7.59138 | 12756 ft | 322 kts | 187° |
| 2026-05-04 16:00 | 37.46150 | -7.59274 | 12580 ft | 313 kts | 187° |
| 2026-05-04 16:01 | 37.44001 | -7.59405 | 12298 ft | 308 kts | 187° |
| 2026-05-04 16:01 | 37.41858 | -7.59542 | 11905 ft | 308 kts | 187° |
| 2026-05-04 16:01 | 37.39751 | -7.59678 | 11574 ft | 306 kts | 187° |
| 2026-05-04 16:01 | 37.37654 | -7.59810 | 11340 ft | 300 kts | 187° |
| 2026-05-04 16:02 | 37.35576 | -7.59944 | 10946 ft | 298 kts | 187° |
| 2026-05-04 16:02 | 37.33513 | -7.60081 | 10429 ft | 296 kts | 187° |
| 2026-05-04 16:02 | 37.29482 | -7.60333 | 9530 ft | 280 kts | 186° |
| 2026-05-04 16:03 | 37.27533 | -7.60453 | 9129 ft | 280 kts | 186° |
| 2026-05-04 16:03 | 37.25589 | -7.60575 | 8742 ft | 281 kts | 186° |
| 2026-05-04 16:03 | 37.23622 | -7.60702 | 8328 ft | 284 kts | 186° |
| 2026-05-04 16:03 | 37.21662 | -7.60827 | 7938 ft | 282 kts | 187° |
| 2026-05-04 16:04 | 37.19695 | -7.60954 | 7480 ft | 282 kts | 187° |
| 2026-05-04 16:04 | 37.16004 | -7.61117 | 6747 ft | 255 kts | 184° |
| 2026-05-04 16:04 | 37.14209 | -7.61201 | 6299 ft | 262 kts | 185° |
| 2026-05-04 16:05 | 37.12379 | -7.61296 | 5855 ft | 264 kts | 183° |
| 2026-05-04 16:05 | 37.10536 | -7.61380 | 5446 ft | 265 kts | 184° |
| 2026-05-04 16:05 | 37.06940 | -7.62200 | 4604 ft | 261 kts | 207° |
| 2026-05-04 16:06 | 37.05368 | -7.63094 | 4439 ft | 236 kts | 208° |
| 2026-05-04 16:06 | 37.01524 | -7.65208 | 4094 ft | 221 kts | 207° |
| 2026-05-04 16:07 | 36.99699 | -7.66311 | 3831 ft | 213 kts | 219° |
| 2026-05-04 16:07 | 36.97812 | -7.70633 | 3193 ft | 184 kts | 272° |
| 2026-05-04 16:08 | 36.97946 | -7.72199 | 3029 ft | 178 kts | 284° |
| 2026-05-04 16:08 | 36.98606 | -7.76737 | 2962 ft | 179 kts | 284° |
| 2026-05-04 16:09 | 36.99043 | -7.79807 | 2548 ft | 174 kts | 282° |
| 2026-05-04 16:09 | 36.99418 | -7.82479 | 2222 ft | 139 kts | 283° |
| 2026-05-04 16:10 | 36.99746 | -7.84777 | 1846 ft | 133 kts | 281° |
| 2026-05-04 16:11 | 37.00224 | -7.88080 | 1304 ft | 124 kts | 281° |
| 2026-05-04 16:11 | 37.00376 | -7.89136 | 1125 ft | 123 kts | 280° |
| 2026-05-04 16:12 | 37.00828 | -7.92302 | 636 ft | 125 kts | 279° |
| 2026-05-04 16:12 | 37.01279 | -7.95439 | 140 ft | 122 kts | 275° |
| 2026-05-04 16:13 | 37.01540 | -7.97252 | 19 ft | 67 kts | 280° |
| 2026-05-04 16:13 | 37.01655 | -7.97986 | 22 ft | 20 kts | 290° |
| 2026-05-04 16:14 | 37.01805 | -7.98233 | 21 ft | 15 kts | 349° |
| 2026-05-04 16:14 | 37.01835 | -7.98046 | 20 ft | 12 kts | 99° |
| 2026-05-04 16:15 | 37.01773 | -7.97608 | 20 ft | 18 kts | 101° |
| 2026-05-04 16:16 | 37.01733 | -7.97318 | 20 ft | 16 kts | 101° |
| 2026-05-04 16:16 | 37.01675 | -7.96928 | 21 ft | 18 kts | 100° |
| 2026-05-04 16:17 | 37.01631 | -7.96612 | 20 ft | 17 kts | 99° |
| 2026-05-04 16:18 | 37.01848 | -7.96508 | 20 ft | 4 kts | 9° |
| 2026-05-04 16:18 | 37.01867 | -7.96505 | 20 ft | 0 kts | 9° |